Time;durP1;ratioP1;P1;durP2;ratioP2;P2;SDS_P1;SDS_P2;PMS_P1;PMS_P2;Temp;Humidity;BMP_temperature;BMP_pressure;BME280_temperature;BME280_humidity;BME280_pressure;Samples;Min_cycle;Max_cycle;Signal;HPM_P1;HPM_P2
2021/11/24 00:01:18;;;;;;;55.63;29.42;;;179.60;2252.80;;;;;;5076181;28;20028;-78
2021/11/24 00:03:43;;;;;;;58.70;28.40;;;179.70;2252.80;;;;;;5094394;28;20084;-80
2021/11/24 00:06:09;;;;;;;49.63;26.85;;;179.60;2252.80;;;;;;5076023;28;20074;-81
2021/11/24 00:08:35;;;;;;;63.13;32.63;;;179.50;2252.80;;;;;;5076174;28;20051;-81
2021/11/24 00:11:01;;;;;;;40.42;23.88;;;179.60;2252.80;;;;;;5075227;28;20032;-83
2021/11/24 00:13:27;;;;;;;41.60;25.13;;;179.50;2252.80;;;;;;5076501;28;20073;-85
2021/11/24 00:15:53;;;;;;;48.08;25.42;;;179.50;2252.80;;;;;;5076577;28;20028;-82
2021/11/24 00:18:19;;;;;;;36.42;22.77;;;179.50;2252.80;;;;;;5077154;28;20457;-83
2021/11/24 00:20:44;;;;;;;41.13;24.25;;;179.50;2252.80;;;;;;5076727;28;20465;-83
2021/11/24 00:23:10;;;;;;;49.00;28.35;;;179.50;2252.80;;;;;;5076796;28;20024;-85
2021/11/24 00:25:36;;;;;;;42.63;25.58;;;179.50;2252.80;;;;;;5077072;28;20173;-83
2021/11/24 00:28:02;;;;;;;42.45;25.60;;;179.40;2252.80;;;;;;5076445;28;20039;-86
2021/11/24 00:30:28;;;;;;;43.47;24.55;;;179.40;2252.80;;;;;;5076482;28;20024;-85
2021/11/24 00:32:55;;;;;;;78.05;33.90;;;179.40;2252.80;;;;;;5076742;28;20034;-84
2021/11/24 00:35:21;;;;;;;92.95;38.85;;;179.40;2252.80;;;;;;5076281;28;20023;-86
2021/11/24 00:37:48;;;;;;;67.88;29.45;;;179.40;2252.80;;;;;;5076703;28;20031;-82
2021/11/24 00:40:14;;;;;;;45.40;24.23;;;179.30;2252.80;;;;;;5077192;28;20058;-83
2021/11/24 00:42:40;;;;;;;37.95;23.15;;;179.40;2252.80;;;;;;5077270;28;20027;-87
2021/11/24 00:45:07;;;;;;;52.60;27.45;;;205.00;2252.80;;;;;;5077370;28;20031;-89
2021/11/24 00:47:33;;;;;;;45.47;26.02;;;179.30;2252.80;;;;;;5077366;28;20104;-87
2021/11/24 00:49:58;;;;;;;44.00;26.40;;;179.40;2252.80;;;;;;5095357;28;20106;-89
2021/11/24 00:52:28;;;;;;;38.60;24.20;;;179.20;2252.80;;;;;;5077254;28;20029;-88
2021/11/24 00:54:54;;;;;;;36.58;22.80;;;179.30;2252.80;;;;;;5077174;28;20028;-87
2021/11/24 00:57:20;;;;;;;32.50;21.70;;;179.20;2252.80;;;;;;5076274;28;20055;-85
2021/11/24 00:59:46;;;;;;;35.88;20.65;;;179.20;2252.80;;;;;;5076879;28;20484;-85
2021/11/24 01:02:12;;;;;;;37.78;24.45;;;179.20;2252.80;;;;;;5077202;28;20385;-86
2021/11/24 01:04:37;;;;;;;37.95;24.67;;;154.50;2252.80;;;;;;5076694;28;20457;-89
2021/11/24 01:07:03;;;;;;;41.70;25.92;;;179.20;2252.80;;;;;;5094598;28;20032;-87
2021/11/24 01:09:29;;;;;;;37.70;23.92;;;179.20;2252.80;;;;;;5077199;28;20028;-87
2021/11/24 01:11:55;;;;;;;36.97;23.30;;;154.50;2252.80;;;;;;5094644;28;20028;-87
2021/11/24 01:14:21;;;;;;;40.75;24.42;;;154.50;2252.80;;;;;;5076886;28;20024;-86
2021/11/24 01:16:47;;;;;;;60.35;34.08;;;154.40;2252.80;;;;;;5076811;28;20123;-86
2021/11/24 01:19:13;;;;;;;48.38;29.55;;;154.40;2252.80;;;;;;5076738;28;20431;-87
2021/11/24 01:21:39;;;;;;;44.28;27.88;;;154.40;2252.80;;;;;;5076737;28;20024;-89
2021/11/24 01:24:05;;;;;;;39.42;25.75;;;154.40;2252.80;;;;;;5076685;28;20020;-87
2021/11/24 01:26:31;;;;;;;46.58;28.23;;;154.50;2252.80;;;;;;5076304;28;20487;-86
2021/11/24 01:28:56;;;;;;;41.20;24.73;;;154.50;2252.80;;;;;;5076607;28;20039;-88
2021/11/24 01:31:22;;;;;;;39.60;24.73;;;154.50;2252.80;;;;;;5076451;28;20594;-88
2021/11/24 01:33:48;;;;;;;30.23;20.27;;;154.50;2252.80;;;;;;5076410;28;20028;-88
2021/11/24 01:36:14;;;;;;;33.40;21.35;;;154.50;2252.80;;;;;;5076481;28;20035;-85
2021/11/24 01:38:40;;;;;;;32.00;20.80;;;154.50;2252.80;;;;;;5076477;28;20042;-88
2021/11/24 01:41:06;;;;;;;37.38;24.33;;;154.40;2252.80;;;;;;5076427;28;20031;-87
2021/11/24 01:43:31;;;;;;;34.17;22.27;;;154.50;2252.80;;;;;;5076045;28;20035;-88
2021/11/24 01:45:57;;;;;;;39.92;23.80;;;154.50;2252.80;;;;;;5076307;28;20032;-86
2021/11/24 01:48:27;;;;;;;33.78;22.90;;;179.20;2252.80;;;;;;5076449;28;20465;-88
2021/11/24 01:50:53;;;;;;;56.17;28.25;;;179.20;2252.80;;;;;;5076558;28;20062;-87
2021/11/24 01:53:19;;;;;;;55.40;29.85;;;179.20;2252.80;;;;;;5076259;28;20032;-88
2021/11/24 01:55:45;;;;;;;39.85;23.77;;;179.30;2252.80;;;;;;5076205;28;20020;-87
2021/11/24 01:58:12;;;;;;;31.67;20.85;;;154.50;2252.80;;;;;;5075977;28;20044;-89
2021/11/24 02:00:38;;;;;;;39.22;24.30;;;154.40;2252.80;;;;;;5076176;28;20028;-85
2021/11/24 02:03:05;;;;;;;41.00;23.30;;;154.40;2252.80;;;;;;5076260;28;20024;-86
2021/11/24 02:05:32;;;;;;;51.17;31.27;;;154.40;2252.80;;;;;;5076236;28;20054;-85
2021/11/24 02:07:58;;;;;;;53.35;31.15;;;154.40;2252.80;;;;;;5076900;28;20485;-88
2021/11/24 02:10:24;;;;;;;66.03;44.63;;;154.20;2252.80;;;;;;5080322;28;20035;-86
2021/11/24 02:12:51;;;;;;;53.90;36.20;;;154.10;2252.80;;;;;;5080283;28;20028;-89
2021/11/24 02:15:18;;;;;;;49.67;34.28;;;153.70;2252.80;;;;;;5080295;28;20032;-87
2021/11/24 02:17:45;;;;;;;47.80;32.55;;;153.60;2252.80;;;;;;5080271;28;20032;-87
2021/11/24 02:20:13;;;;;;;47.40;32.20;;;153.60;2252.80;;;;;;5080178;28;20026;-87
2021/11/24 02:22:38;;;;;;;50.30;32.22;;;154.00;2252.80;;;;;;5080162;28;20027;-86
2021/11/24 02:25:05;;;;;;;67.30;41.40;;;153.80;2252.80;;;;;;5080055;28;20028;-88
2021/11/24 02:27:30;;;;;;;55.30;40.60;;;153.60;2252.80;;;;;;5079843;28;20058;-88
2021/11/24 02:29:56;;;;;;;68.85;47.63;;;153.90;2252.80;;;;;;5080075;28;20455;-86
2021/11/24 02:32:22;;;;;;;61.58;42.88;;;153.80;2252.80;;;;;;5097877;28;20028;-87
2021/11/24 02:34:48;;;;;;;48.67;35.97;;;153.60;2252.80;;;;;;5079876;28;20028;-86
2021/11/24 02:37:14;;;;;;;46.30;34.45;;;153.60;2252.80;;;;;;5079809;28;20127;-85
2021/11/24 02:39:40;;;;;;;68.57;41.00;;;153.70;2252.80;;;;;;5080008;28;20480;-86
2021/11/24 02:42:06;;;;;;;36.10;26.25;;;153.90;2252.80;;;;;;5079534;28;20027;-88
2021/11/24 02:44:36;;;;;;;36.33;25.27;;;153.80;2252.80;;;;;;5079880;28;20381;-87
2021/11/24 02:47:08;;;;;;;45.63;27.92;;;153.90;2252.80;;;;;;5079822;28;20159;-87
2021/11/24 02:49:40;;;;;;;41.22;26.58;;;154.00;2252.80;;;;;;5079064;28;20078;-88
2021/11/24 02:52:07;;;;;;;48.30;31.20;;;154.00;2252.80;;;;;;5079499;28;20028;-88
2021/11/24 02:54:33;;;;;;;50.15;32.53;;;154.00;2252.80;;;;;;5079784;28;20473;-86
2021/11/24 02:57:00;;;;;;;48.63;32.30;;;153.90;2252.80;;;;;;5079423;28;20048;-88
2021/11/24 02:59:26;;;;;;;51.33;31.30;;;153.90;2252.80;;;;;;5079512;28;20031;-88
2021/11/24 03:01:52;;;;;;;43.45;29.25;;;153.90;2252.80;;;;;;5079115;28;20024;-86
2021/11/24 03:04:18;;;;;;;42.70;27.95;;;153.90;2252.80;;;;;;5078947;28;20053;-87
2021/11/24 03:06:44;;;;;;;42.00;25.35;;;153.80;2252.80;;;;;;5079215;28;20036;-88
2021/11/24 03:09:09;;;;;;;36.88;24.33;;;153.70;2252.80;;;;;;5079096;28;20035;-87
2021/11/24 03:11:35;;;;;;;29.40;19.88;;;153.70;2252.80;;;;;;5078772;28;20466;-88
2021/11/24 03:14:01;;;;;;;33.03;20.95;;;153.70;2252.80;;;;;;5078824;28;20440;-86
2021/11/24 03:16:27;;;;;;;38.53;24.63;;;128.80;2252.80;;;;;;5079027;28;20032;-88
2021/11/24 03:18:53;;;;;;;37.00;22.52;;;128.60;2252.80;;;;;;5079139;28;20029;-87
2021/11/24 03:21:19;;;;;;;33.65;21.40;;;128.80;2252.80;;;;;;5079164;28;20426;-87
2021/11/24 03:23:45;;;;;;;27.98;17.55;;;128.90;2252.80;;;;;;5078591;28;20031;-85
2021/11/24 03:26:11;;;;;;;43.17;23.48;;;153.60;2252.80;;;;;;5079224;28;20020;-85
2021/11/24 03:28:37;;;;;;;34.75;21.38;;;153.60;2252.80;;;;;;5079144;28;20464;-85
2021/11/24 03:31:03;;;;;;;35.55;22.17;;;153.60;2252.80;;;;;;5078799;28;20110;-85
2021/11/24 03:33:29;;;;;;;31.80;20.85;;;128.90;2252.80;;;;;;5078817;28;20024;-86
2021/11/24 03:35:54;;;;;;;29.75;18.23;;;128.80;2252.80;;;;;;5078825;28;20151;-87
2021/11/24 03:38:20;;;;;;;25.45;15.45;;;128.70;2252.80;;;;;;5078464;28;20479;-85
2021/11/24 03:40:46;;;;;;;21.92;15.50;;;128.70;2252.80;;;;;;5078632;28;20370;-86
2021/11/24 03:43:12;;;;;;;29.20;18.48;;;128.60;2252.80;;;;;;5078686;28;20028;-88
2021/11/24 03:45:38;;;;;;;22.48;15.68;;;128.50;2252.80;;;;;;5078638;28;20032;-86
2021/11/24 03:48:07;;;;;;;24.70;17.10;;;128.40;2252.80;;;;;;5078233;28;20035;-87
2021/11/24 03:50:33;;;;;;;30.23;19.25;;;128.50;2252.80;;;;;;5078565;28;20024;-88
2021/11/24 03:52:59;;;;;;;27.00;19.27;;;128.60;2252.80;;;;;;5096454;28;20042;-86
2021/11/24 03:55:25;;;;;;;31.38;19.20;;;128.60;2252.80;;;;;;5078561;28;20032;-88
2021/11/24 03:57:51;;;;;;;31.20;19.58;;;128.30;2252.80;;;;;;5078050;28;20048;-87
2021/11/24 04:00:21;;;;;;;30.42;19.58;;;128.30;2252.80;;;;;;5078289;28;20031;-86
2021/11/24 04:02:48;;;;;;;29.42;18.75;;;128.30;2252.80;;;;;;5078324;28;20035;-85
2021/11/24 04:05:14;;;;;;;45.45;29.08;;;103.30;2227.20;;;;;;5078158;28;20024;-85
2021/11/24 04:07:40;;;;;;;47.50;29.05;;;103.30;2227.20;;;;;;5078015;28;20082;-86
2021/11/24 04:10:08;;;;;;;45.83;30.40;;;128.00;2252.80;;;;;;5077987;28;20025;-88
2021/11/24 04:12:37;;;;;;;41.25;27.38;;;128.10;2252.80;;;;;;5078012;28;20119;-88
2021/11/24 04:15:06;;;;;;;38.45;25.85;;;128.20;2252.80;;;;;;5077821;28;20020;-87
2021/11/24 04:17:32;;;;;;;40.28;23.83;;;128.30;2252.80;;;;;;5077925;28;20491;-85
2021/11/24 04:19:59;;;;;;;58.53;31.50;;;128.40;2252.80;;;;;;5077715;28;20020;-86
2021/11/24 04:22:25;;;;;;;50.30;30.02;;;128.30;2252.80;;;;;;5077709;28;20047;-86
2021/11/24 04:24:50;;;;;;;37.92;23.25;;;128.30;2252.80;;;;;;5077773;28;20027;-88
2021/11/24 04:27:16;;;;;;;48.53;28.70;;;128.10;2252.80;;;;;;5077366;28;20032;-85
2021/11/24 04:29:42;;;;;;;63.75;35.28;;;103.20;2227.20;;;;;;5077781;28;20146;-87
2021/11/24 04:32:08;;;;;;;56.03;33.58;;;103.30;2227.20;;;;;;5076796;28;20024;-87
2021/11/24 04:34:35;;;;;;;56.33;34.72;;;128.00;2252.80;;;;;;5077635;28;20024;-86
2021/11/24 04:37:01;;;;;;;75.63;48.47;;;128.00;2252.80;;;;;;5077623;28;20059;-86
2021/11/24 04:39:27;;;;;;;93.80;55.70;;;128.00;2252.80;;;;;;5095938;28;20028;-86
2021/11/24 04:41:53;;;;;;;99.50;58.63;;;128.00;2252.80;;;;;;5077615;28;20024;-84
2021/11/24 04:44:19;;;;;;;106.25;63.53;;;103.20;2227.20;;;;;;5077499;28;20096;-86
2021/11/24 04:46:44;;;;;;;91.10;54.70;;;103.30;2227.20;;;;;;5077430;28;20116;-86
2021/11/24 04:49:10;;;;;;;91.85;55.58;;;103.20;2227.20;;;;;;5077165;28;20123;-88
2021/11/24 04:51:36;;;;;;;105.95;63.30;;;103.10;2227.20;;;;;;5077304;28;20096;-87
2021/11/24 04:54:02;;;;;;;90.18;58.97;;;102.80;2227.20;;;;;;5077218;28;20024;-87
2021/11/24 04:56:28;;;;;;;79.22;50.40;;;103.00;2227.20;;;;;;5076938;28;20047;-87
2021/11/24 04:58:56;;;;;;;61.55;35.80;;;103.20;2227.20;;;;;;5077201;28;20028;-87
2021/11/24 05:01:23;;;;;;;67.18;41.75;;;102.90;2227.20;;;;;;5076897;28;20035;-86
2021/11/24 05:03:49;;;;;;;59.97;38.78;;;103.00;2227.20;;;;;;5077003;28;20028;-88
2021/11/24 05:06:16;;;;;;;58.85;36.55;;;103.20;2227.20;;;;;;5076614;28;20048;-86
2021/11/24 05:08:42;;;;;;;68.18;40.03;;;103.00;2227.20;;;;;;5077042;28;20039;-86
2021/11/24 05:11:09;;;;;;;61.42;40.92;;;102.60;2227.20;;;;;;5077321;28;20024;-87
2021/11/24 05:13:37;;;;;;;75.18;46.08;;;77.70;2227.20;;;;;;5076909;28;20028;-86
2021/11/24 05:16:04;;;;;;;69.93;43.63;;;102.60;2227.20;;;;;;5076721;28;20028;-88
2021/11/24 05:18:37;;;;;;;72.40;47.65;;;102.50;2227.20;;;;;;5076894;28;20024;-88
2021/11/24 05:21:10;;;;;;;80.32;51.35;;;102.80;2227.20;;;;;;5076882;28;20031;-89
2021/11/24 05:23:37;;;;;;;73.72;49.50;;;102.80;2227.20;;;;;;5094741;28;20020;-89
2021/11/24 05:26:05;;;;;;;92.82;62.80;;;102.90;2227.20;;;;;;5076759;28;20051;-88
2021/11/24 05:28:32;;;;;;;93.55;60.38;;;103.00;2227.20;;;;;;5076677;28;20029;-87
2021/11/24 05:30:58;;;;;;;86.15;59.83;;;103.00;2227.20;;;;;;5076193;28;20034;-85
2021/11/24 05:33:24;;;;;;;83.05;54.85;;;102.90;2227.20;;;;;;5076739;28;20469;-88
2021/11/24 05:35:50;;;;;;;78.78;53.65;;;103.00;2227.20;;;;;;5077002;28;20389;-86
2021/11/24 05:38:16;;;;;;;75.07;53.75;;;102.90;2227.20;;;;;;5076454;28;20034;-87
2021/11/24 05:40:42;;;;;;;77.75;57.45;;;102.80;2227.20;;;;;;5076904;28;20035;-87
2021/11/24 05:43:08;;;;;;;67.65;50.13;;;102.90;2227.20;;;;;;5076438;28;20169;-87
2021/11/24 05:48:09;;;;;;;92.10;57.63;;;103.10;2227.20;;;;;;5094650;28;20032;-89
2021/11/24 05:50:37;;;;;;;104.93;64.53;;;103.10;2227.20;;;;;;5076588;28;20086;-88
2021/11/24 05:53:03;;;;;;;154.80;87.80;;;103.10;2227.20;;;;;;5076613;28;20024;-88
2021/11/24 05:55:29;;;;;;;118.00;77.57;;;103.20;2227.20;;;;;;5076331;28;20026;-88
2021/11/24 05:57:55;;;;;;;112.15;72.10;;;103.00;2227.20;;;;;;5076015;28;20044;-88
2021/11/24 06:00:21;;;;;;;89.20;59.72;;;103.10;2227.20;;;;;;5076474;28;20028;-86
2021/11/24 06:02:47;;;;;;;130.82;87.45;;;102.80;2227.20;;;;;;5094482;28;20541;-88
2021/11/24 06:05:13;;;;;;;103.47;73.15;;;102.80;2227.20;;;;;;5076210;28;20115;-87
2021/11/24 06:07:40;;;;;;;97.78;68.85;;;102.60;2227.20;;;;;;5076349;28;20036;-87
2021/11/24 06:10:08;;;;;;;91.25;59.80;;;102.50;2227.20;;;;;;5076383;28;20081;-87
2021/11/24 06:12:35;;;;;;;88.50;57.97;;;102.70;2227.20;;;;;;5075992;28;20028;-87
2021/11/24 06:15:01;;;;;;;95.93;61.65;;;102.60;2227.20;;;;;;5076418;28;20080;-86
2021/11/24 06:17:26;;;;;;;100.63;63.90;;;102.60;2227.20;;;;;;5076259;28;20036;-89
2021/11/24 06:19:52;;;;;;;91.40;61.95;;;102.70;2227.20;;;;;;5076075;28;20031;-89
2021/11/24 06:22:18;;;;;;;95.53;65.45;;;102.80;2227.20;;;;;;5076169;28;20487;-87
2021/11/24 06:24:44;;;;;;;127.28;87.07;;;102.90;2227.20;;;;;;5076232;28;20069;-87
2021/11/24 06:27:10;;;;;;;120.45;85.00;;;102.50;2227.20;;;;;;5075978;28;20040;-89
2021/11/24 06:29:36;;;;;;;123.30;85.00;;;102.80;2227.20;;;;;;5076124;28;20106;-88
2021/11/24 06:32:02;;;;;;;129.20;86.88;;;102.80;2227.20;;;;;;5076204;28;20021;-90
2021/11/24 06:34:28;;;;;;;158.85;110.25;;;103.00;2227.20;;;;;;5076130;28;20031;-87
2021/11/24 06:36:53;;;;;;;138.38;94.60;;;102.60;2227.20;;;;;;5076175;28;20032;-89
2021/11/24 06:39:24;;;;;;;124.95;80.07;;;102.40;2227.20;;;;;;5076002;28;20111;-88
2021/11/24 06:41:50;;;;;;;104.68;64.22;;;102.50;2227.20;;;;;;5076567;28;20028;-88
2021/11/24 06:44:16;;;;;;;108.50;68.40;;;102.70;2227.20;;;;;;5076156;28;20032;-88
2021/11/24 06:46:42;;;;;;;123.95;71.75;;;102.50;2227.20;;;;;;5076023;28;20538;-87
2021/11/24 06:49:08;;;;;;;118.78;68.57;;;102.50;2227.20;;;;;;5076148;28;20024;-88
2021/11/24 06:51:35;;;;;;;139.75;81.88;;;77.70;2227.20;;;;;;5075995;28;20166;-88
2021/11/24 06:54:01;;;;;;;133.98;83.22;;;77.50;2227.20;;;;;;5076778;28;20123;-89
2021/11/24 06:56:27;;;;;;;124.68;71.32;;;77.40;2227.20;;;;;;5079435;28;20530;-89
2021/11/24 06:58:53;;;;;;;103.70;64.00;;;77.40;2227.20;;;;;;5097817;28;20059;-89
2021/11/24 07:01:18;;;;;;;103.53;62.50;;;77.70;2227.20;;;;;;5079301;28;20032;-88
2021/11/24 07:03:44;;;;;;;93.88;60.13;;;77.70;2227.20;;;;;;5079347;28;20024;-84
2021/11/24 07:06:10;;;;;;;101.35;63.05;;;102.50;2227.20;;;;;;5097569;28;20020;-89
2021/11/24 07:08:36;;;;;;;117.28;73.82;;;102.40;2227.20;;;;;;5079486;28;20115;-90
2021/11/24 07:11:02;;;;;;;123.78;75.97;;;102.40;2227.20;;;;;;5079451;28;20043;-87
2021/11/24 07:13:27;;;;;;;162.48;92.82;;;102.70;2227.20;;;;;;5097701;28;20050;-89
2021/11/24 07:15:53;;;;;;;147.18;90.10;;;102.90;2227.20;;;;;;5079336;28;20031;-87
2021/11/24 07:18:19;;;;;;;143.05;91.38;;;102.90;2227.20;;;;;;5079582;28;20472;-89
2021/11/24 07:20:45;;;;;;;153.68;91.93;;;103.10;2227.20;;;;;;5079248;28;20058;-87
2021/11/24 07:23:11;;;;;;;147.82;93.15;;;103.00;2227.20;;;;;;5079128;28;20020;-88
2021/11/24 07:25:36;;;;;;;167.25;95.45;;;103.00;2227.20;;;;;;5078874;28;20032;-87
2021/11/24 07:28:03;;;;;;;148.65;93.63;;;103.00;2227.20;;;;;;5078828;28;20032;-87
2021/11/24 07:30:29;;;;;;;138.43;85.80;;;102.90;2227.20;;;;;;5078885;28;20047;-89
2021/11/24 07:32:55;;;;;;;124.10;82.75;;;102.90;2227.20;;;;;;5078992;28;20457;-88
2021/11/24 07:35:20;;;;;;;112.38;73.85;;;103.00;2227.20;;;;;;5078937;28;20382;-88
2021/11/24 07:37:46;;;;;;;74.63;49.78;;;103.10;2227.20;;;;;;5078790;28;20032;-87
2021/11/24 07:40:12;;;;;;;69.75;48.53;;;103.20;2227.20;;;;;;5078835;28;20068;-86
2021/11/24 07:42:39;;;;;;;73.55;46.63;;;103.10;2227.20;;;;;;5078491;28;20024;-88
2021/11/24 07:45:06;;;;;;;91.90;58.92;;;103.20;2227.20;;;;;;5078648;28;20028;-87
2021/11/24 07:47:32;;;;;;;78.88;49.88;;;128.00;2252.80;;;;;;5078747;28;20032;-88
2021/11/24 07:49:58;;;;;;;84.32;51.65;;;103.00;2227.20;;;;;;5078650;28;20031;-87
2021/11/24 07:52:24;;;;;;;63.10;42.70;;;103.20;2227.20;;;;;;5078654;28;20024;-88
2021/11/24 07:54:50;;;;;;;83.53;56.40;;;103.10;2227.20;;;;;;5078717;28;20119;-86
2021/11/24 07:57:18;;;;;;;83.50;55.45;;;103.00;2227.20;;;;;;5074926;28;20054;-87
2021/11/24 07:59:44;;;;;;;79.68;51.35;;;103.20;2227.20;;;;;;5075030;28;20025;-88
2021/11/24 08:02:09;;;;;;;91.82;60.30;;;103.30;2227.20;;;;;;5074989;28;20028;-87
2021/11/24 08:04:35;;;;;;;72.38;51.38;;;128.00;2252.80;;;;;;5074544;28;20078;-87
2021/11/24 08:07:03;;;;;;;60.70;38.42;;;128.30;2252.80;;;;;;5075013;28;20063;-86
2021/11/24 08:09:30;;;;;;;71.45;46.25;;;128.20;2252.80;;;;;;5074734;28;20031;-85
2021/11/24 08:11:59;;;;;;;72.78;47.88;;;128.30;2252.80;;;;;;5075707;28;20461;-89
2021/11/24 08:14:26;;;;;;;70.03;44.40;;;128.40;2252.80;;;;;;5074596;28;20027;-87
2021/11/24 08:16:52;;;;;;;71.68;45.28;;;128.40;2252.80;;;;;;5074463;28;20033;-87
2021/11/24 08:19:18;;;;;;;63.65;40.05;;;128.40;2252.80;;;;;;5074628;28;20029;-86
2021/11/24 08:21:44;;;;;;;74.22;49.42;;;128.50;2252.80;;;;;;5074271;28;20111;-78
2021/11/24 08:24:10;;;;;;;80.10;51.65;;;128.30;2252.80;;;;;;5074190;28;20024;-88
2021/11/24 08:26:36;;;;;;;65.85;43.03;;;128.40;2252.80;;;;;;5074078;28;20534;-88
2021/11/24 08:29:02;;;;;;;57.20;40.70;;;128.60;2252.80;;;;;;5073939;28;20070;-86
2021/11/24 08:31:29;;;;;;;73.35;50.22;;;128.50;2252.80;;;;;;5074174;28;20035;-86
2021/11/24 08:33:55;;;;;;;69.03;50.22;;;128.60;2252.80;;;;;;5074170;28;20025;-86
2021/11/24 08:36:21;;;;;;;63.53;42.88;;;128.60;2252.80;;;;;;5074517;28;20039;-87
2021/11/24 08:38:46;;;;;;;64.28;43.67;;;128.70;2252.80;;;;;;5074025;28;20079;-88
2021/11/24 08:41:13;;;;;;;56.95;39.30;;;128.80;2252.80;;;;;;5074200;28;20025;-88
2021/11/24 08:43:40;;;;;;;59.97;37.58;;;153.60;2252.80;;;;;;5074085;28;20116;-87
2021/11/24 08:46:06;;;;;;;53.53;37.28;;;153.60;2252.80;;;;;;5073798;28;20047;-86
2021/11/24 08:48:33;;;;;;;48.20;31.40;;;128.90;2252.80;;;;;;5074088;28;20021;-85
2021/11/24 08:50:58;;;;;;;45.40;30.88;;;153.60;2252.80;;;;;;5074093;28;20035;-87
2021/11/24 08:53:25;;;;;;;67.35;45.33;;;153.80;2252.80;;;;;;5073693;28;20025;-89
2021/11/24 08:55:51;;;;;;;61.78;43.05;;;153.70;2252.80;;;;;;5074035;28;20050;-87
2021/11/24 08:58:18;;;;;;;66.75;43.55;;;153.80;2252.80;;;;;;5074228;28;20409;-87
2021/11/24 09:00:45;;;;;;;65.72;44.17;;;128.90;2252.80;;;;;;5074552;28;20025;-86
2021/11/24 09:03:11;;;;;;;66.32;47.03;;;128.90;2252.80;;;;;;5074385;28;20021;-86
2021/11/24 09:05:38;;;;;;;69.07;45.60;;;153.60;2252.80;;;;;;5074582;28;20029;-90
2021/11/24 09:08:04;;;;;;;80.70;57.70;;;153.80;2252.80;;;;;;5074406;28;20037;-86
2021/11/24 09:10:31;;;;;;;69.13;45.58;;;153.90;2252.80;;;;;;5073928;28;20051;-85
2021/11/24 09:12:58;;;;;;;67.38;43.08;;;153.70;2252.80;;;;;;5074246;28;20090;-86
2021/11/24 09:15:24;;;;;;;69.43;45.13;;;153.90;2252.80;;;;;;5073793;28;20059;-88
2021/11/24 09:17:50;;;;;;;65.15;45.20;;;153.70;2252.80;;;;;;5074246;28;20078;-90
2021/11/24 09:20:16;;;;;;;68.70;44.85;;;153.60;2252.80;;;;;;5073896;28;20028;-88
2021/11/24 09:22:46;;;;;;;67.47;45.35;;;153.80;2252.80;;;;;;5074555;28;20025;-88
2021/11/24 09:25:17;;;;;;;66.20;42.63;;;153.90;2252.80;;;;;;5074982;28;20119;-86
2021/11/24 09:27:58;;;;;;;72.50;47.50;;;154.20;2252.80;;;;;;5074173;28;20036;-86
2021/11/24 09:30:25;;;;;;;70.28;48.55;;;154.20;2252.80;;;;;;5073857;28;20454;-84
2021/11/24 09:32:51;;;;;;;76.70;55.33;;;154.50;2252.80;;;;;;5073083;28;20116;-87
2021/11/24 09:35:17;;;;;;;80.70;56.22;;;179.30;2252.80;;;;;;5074137;28;20056;-86
2021/11/24 09:37:43;;;;;;;80.93;54.05;;;179.40;2252.80;;;;;;5075653;28;20355;-85
2021/11/24 09:40:09;;;;;;;89.05;60.72;;;179.40;2252.80;;;;;;5074288;28;20029;-85
2021/11/24 09:42:40;;;;;;;95.13;63.42;;;179.40;2252.80;;;;;;5074596;28;20029;-84
2021/11/24 09:45:06;;;;;;;92.13;59.22;;;179.50;2252.80;;;;;;5073969;28;20028;-80
2021/11/24 09:47:34;;;;;;;92.35;62.80;;;179.50;2252.80;;;;;;5073394;28;20371;-83
2021/11/24 09:50:01;;;;;;;143.48;110.53;;;179.70;2252.80;;;;;;5074847;28;20028;-83
2021/11/24 09:52:28;;;;;;;102.85;76.35;;;179.60;2252.80;;;;;;5076241;28;20071;-83
2021/11/24 09:54:54;;;;;;;81.63;57.80;;;179.70;2252.80;;;;;;5076484;28;20024;-83
2021/11/24 09:57:23;;;;;;;73.88;52.15;;;179.70;2252.80;;;;;;5075177;28;20505;-82
2021/11/24 09:59:50;;;;;;;85.10;55.25;;;179.90;2252.80;;;;;;5074385;28;20032;-81
2021/11/24 10:02:18;;;;;;;64.07;45.08;;;204.80;2252.80;;;;;;5073674;28;20032;-84
2021/11/24 10:04:46;;;;;;;67.40;44.08;;;180.10;2252.80;;;;;;5074370;28;20416;-81
2021/11/24 10:07:14;;;;;;;115.22;66.47;;;180.10;2252.80;;;;;;5072427;28;20046;-80
2021/11/24 10:09:40;;;;;;;80.60;59.10;;;204.90;2252.80;;;;;;5072932;28;20020;-76
2021/11/24 10:12:08;;;;;;;135.32;107.10;;;204.90;2252.80;;;;;;5072003;28;20035;-76
2021/11/24 10:14:35;;;;;;;74.22;51.67;;;205.10;2252.80;;;;;;5073371;28;20025;-77
2021/11/24 10:17:08;;;;;;;54.60;38.28;;;205.30;2252.80;;;;;;5071875;28;20051;-79
2021/11/24 10:19:34;;;;;;;47.60;32.75;;;205.30;2252.80;;;;;;5072140;28;20177;-79
2021/11/24 10:22:14;;;;;;;39.83;28.88;;;205.40;2252.80;;;;;;5071954;28;20024;-77
2021/11/24 10:24:44;;;;;;;39.97;28.02;;;205.50;2252.80;;;;;;5073378;28;20028;-79
2021/11/24 10:27:12;;;;;;;39.95;28.05;;;205.50;2252.80;;;;;;5072195;28;20033;-77
2021/11/24 10:29:40;;;;;;;43.97;30.10;;;205.50;2252.80;;;;;;5075253;28;20044;-78
2021/11/24 10:32:09;;;;;;;48.30;33.25;;;205.60;2252.80;;;;;;5075683;28;20036;-78
2021/11/24 10:34:39;;;;;;;42.53;31.08;;;230.40;2252.80;;;;;;5076759;28;20048;-78
2021/11/24 10:37:09;;;;;;;45.22;34.13;;;230.40;2252.80;;;;;;5076683;28;20382;-79
2021/11/24 10:39:48;;;;;;;43.38;34.28;;;205.70;2252.80;;;;;;5075661;28;20025;-79
2021/11/24 10:42:23;;;;;;;41.40;31.00;;;230.40;2252.80;;;;;;5075775;28;20029;-78
2021/11/24 10:44:54;;;;;;;43.35;29.88;;;230.40;2252.80;;;;;;5075227;28;20087;-78
2021/11/24 10:47:21;;;;;;;39.83;25.95;;;205.70;2252.80;;;;;;5075397;28;20477;-78
2021/11/24 10:49:50;;;;;;;39.10;24.73;;;230.50;2252.80;;;;;;5075538;28;20086;-77
2021/11/24 10:52:27;;;;;;;34.90;25.05;;;230.60;2252.80;;;;;;5076710;28;20051;-78
2021/11/24 10:55:06;;;;;;;81.10;56.78;;;230.50;2252.80;;;;;;5075563;28;20020;-77
2021/11/24 10:57:35;;;;;;;63.65;47.33;;;230.50;2252.80;;;;;;5075273;28;20056;-78
2021/11/24 11:00:06;;;;;;;35.78;26.75;;;230.50;2252.80;;;;;;5075010;28;20078;-79
2021/11/24 11:02:47;;;;;;;34.65;27.23;;;230.70;2252.80;;;;;;5075136;28;20385;-78
2021/11/24 11:05:26;;;;;;;31.52;23.83;;;230.80;2252.80;;;;;;5074877;28;20029;-78
2021/11/24 11:07:52;;;;;;;29.02;20.25;;;230.90;2252.80;;;;;;5073708;28;20064;-78
2021/11/24 11:10:21;;;;;;;43.63;30.45;;;230.80;2252.80;;;;;;5073932;28;20075;-77
2021/11/24 11:13:11;;;;;;;35.55;24.52;;;231.10;2252.80;;;;;;5074888;28;20456;-78
2021/11/24 11:15:53;;;;;;;37.72;27.50;;;231.20;2252.80;;;;;;5074178;28;20410;-82
2021/11/24 11:18:25;;;;;;;33.50;24.27;;;256.20;2252.80;;;;;;5074052;28;20035;-76
2021/11/24 11:21:07;;;;;;;30.05;21.77;;;256.30;2252.80;;;;;;5074526;28;20458;-78
2021/11/24 11:23:38;;;;;;;29.45;20.42;;;256.30;2252.80;;;;;;5074172;28;20496;-77
2021/11/24 11:26:16;;;;;;;36.53;25.77;;;256.50;2252.80;;;;;;5075478;28;20066;-77
2021/11/24 11:28:44;;;;;;;30.00;20.65;;;256.60;2252.80;;;;;;5074860;28;20037;-80
2021/11/24 11:31:13;;;;;;;30.30;21.92;;;256.40;2252.80;;;;;;5074981;28;20028;-79
2021/11/24 11:33:42;;;;;;;31.52;23.98;;;256.80;2252.80;;;;;;5075041;28;20107;-81
2021/11/24 11:36:09;;;;;;;34.00;24.15;;;281.70;2278.40;;;;;;5074508;28;20066;-82
2021/11/24 11:38:37;;;;;;;54.95;40.10;;;281.80;2278.40;;;;;;5074681;28;20363;-83
2021/11/24 11:41:04;;;;;;;53.83;41.92;;;282.00;2278.40;;;;;;5074818;28;20473;-81
2021/11/24 11:43:31;;;;;;;45.15;35.58;;;282.30;2278.40;;;;;;5074497;28;20028;-81
2021/11/24 11:45:58;;;;;;;28.67;21.05;;;307.30;2304.00;;;;;;5075630;28;20168;-80
2021/11/24 11:48:32;;;;;;;33.47;23.25;;;307.30;2304.00;;;;;;5074073;28;20029;-79
2021/11/24 11:51:03;;;;;;;49.63;36.28;;;307.30;2304.00;;;;;;5074187;28;20025;-77
2021/11/24 11:53:29;;;;;;;35.88;27.38;;;307.20;2304.00;;;;;;5075601;28;20031;-80
2021/11/24 11:56:11;;;;;;;33.20;25.38;;;307.20;2304.00;;;;;;5074298;28;20025;-80
2021/11/24 11:58:52;;;;;;;27.23;21.42;;;307.20;2304.00;;;;;;5075398;28;20093;-81
2021/11/24 12:01:24;;;;;;;30.90;23.02;;;307.30;2304.00;;;;;;5074060;28;20024;-79